sensor_id;sensor_type;location;lat;lon;timestamp;temperature;humidity
22192;DHT22;11261;52.456;10.850;2023-05-28T00:00:50;12.20;99.90
22192;DHT22;11261;52.456;10.850;2023-05-28T00:03:18;12.30;99.90
22192;DHT22;11261;52.456;10.850;2023-05-28T00:05:47;12.20;99.90
22192;DHT22;11261;52.456;10.850;2023-05-28T00:08:16;12.20;99.90
22192;DHT22;11261;52.456;10.850;2023-05-28T00:10:44;12.10;99.90
22192;DHT22;11261;52.456;10.850;2023-05-28T00:13:12;12.10;99.90
22192;DHT22;11261;52.456;10.850;2023-05-28T00:15:41;12.10;99.90
22192;DHT22;11261;52.456;10.850;2023-05-28T00:18:11;12.10;99.90
22192;DHT22;11261;52.456;10.850;2023-05-28T00:20:41;12.10;99.90
22192;DHT22;11261;52.456;10.850;2023-05-28T00:23:10;12.10;99.90
22192;DHT22;11261;52.456;10.850;2023-05-28T00:25:38;12.00;99.90
22192;DHT22;11261;52.456;10.850;2023-05-28T00:28:06;11.90;99.90
22192;DHT22;11261;52.456;10.850;2023-05-28T00:30:34;11.80;99.90
22192;DHT22;11261;52.456;10.850;2023-05-28T00:33:03;11.60;99.90
22192;DHT22;11261;52.456;10.850;2023-05-28T00:35:33;11.30;99.90
22192;DHT22;11261;52.456;10.850;2023-05-28T00:38:02;11.20;99.90
22192;DHT22;11261;52.456;10.850;2023-05-28T00:40:30;11.20;99.90
22192;DHT22;11261;52.456;10.850;2023-05-28T00:42:58;11.20;99.90
22192;DHT22;11261;52.456;10.850;2023-05-28T00:45:27;11.30;99.90
22192;DHT22;11261;52.456;10.850;2023-05-28T00:47:55;11.30;99.90
22192;DHT22;11261;52.456;10.850;2023-05-28T00:50:24;11.30;99.90
22192;DHT22;11261;52.456;10.850;2023-05-28T00:52:54;11.20;99.90
22192;DHT22;11261;52.456;10.850;2023-05-28T00:55:23;11.10;99.90
22192;DHT22;11261;52.456;10.850;2023-05-28T00:57:53;11.00;99.90
22192;DHT22;11261;52.456;10.850;2023-05-28T01:00:23;11.00;99.90
22192;DHT22;11261;52.456;10.850;2023-05-28T01:02:51;11.10;99.90
22192;DHT22;11261;52.456;10.850;2023-05-28T01:05:20;11.10;99.90
22192;DHT22;11261;52.456;10.850;2023-05-28T01:07:49;10.90;99.90
22192;DHT22;11261;52.456;10.850;2023-05-28T01:10:19;10.80;99.90
22192;DHT22;11261;52.456;10.850;2023-05-28T01:12:47;11.00;99.90
22192;DHT22;11261;52.456;10.850;2023-05-28T01:15:17;10.90;99.90
22192;DHT22;11261;52.456;10.850;2023-05-28T01:17:46;10.90;99.90
22192;DHT22;11261;52.456;10.850;2023-05-28T01:20:15;10.90;99.90
22192;DHT22;11261;52.456;10.850;2023-05-28T01:22:46;10.90;99.90
22192;DHT22;11261;52.456;10.850;2023-05-28T01:25:22;10.90;99.90
22192;DHT22;11261;52.456;10.850;2023-05-28T01:27:51;10.90;99.90
22192;DHT22;11261;52.456;10.850;2023-05-28T01:30:19;10.90;99.90
22192;DHT22;11261;52.456;10.850;2023-05-28T01:32:48;10.80;99.90
22192;DHT22;11261;52.456;10.850;2023-05-28T01:35:17;10.70;99.90
22192;DHT22;11261;52.456;10.850;2023-05-28T01:37:48;10.70;99.90
22192;DHT22;11261;52.456;10.850;2023-05-28T01:40:18;10.70;99.90
22192;DHT22;11261;52.456;10.850;2023-05-28T01:42:50;10.70;99.90
22192;DHT22;11261;52.456;10.850;2023-05-28T01:45:18;10.70;99.90
22192;DHT22;11261;52.456;10.850;2023-05-28T01:47:47;10.60;99.90
22192;DHT22;11261;52.456;10.850;2023-05-28T01:50:16;10.60;99.90
22192;DHT22;11261;52.456;10.850;2023-05-28T01:52:45;10.30;99.90
22192;DHT22;11261;52.456;10.850;2023-05-28T01:55:13;10.40;99.90
22192;DHT22;11261;52.456;10.850;2023-05-28T01:57:42;10.60;99.90
22192;DHT22;11261;52.456;10.850;2023-05-28T02:00:13;10.60;99.90
22192;DHT22;11261;52.456;10.850;2023-05-28T02:02:43;10.60;99.90
22192;DHT22;11261;52.456;10.850;2023-05-28T02:05:11;10.50;99.90
22192;DHT22;11261;52.456;10.850;2023-05-28T02:07:39;10.50;99.90
22192;DHT22;11261;52.456;10.850;2023-05-28T02:10:08;10.40;99.90
22192;DHT22;11261;52.456;10.850;2023-05-28T02:12:36;10.40;99.90
22192;DHT22;11261;52.456;10.850;2023-05-28T02:15:05;10.30;99.90
22192;DHT22;11261;52.456;10.850;2023-05-28T02:17:35;10.30;99.90
22192;DHT22;11261;52.456;10.850;2023-05-28T02:20:04;10.30;99.90
22192;DHT22;11261;52.456;10.850;2023-05-28T02:22:33;10.30;99.90
22192;DHT22;11261;52.456;10.850;2023-05-28T02:25:01;10.20;99.90
22192;DHT22;11261;52.456;10.850;2023-05-28T02:27:30;9.90;99.90
22192;DHT22;11261;52.456;10.850;2023-05-28T02:29:58;9.70;99.90
22192;DHT22;11261;52.456;10.850;2023-05-28T02:32:27;9.70;99.90
22192;DHT22;11261;52.456;10.850;2023-05-28T02:34:57;9.80;99.90
22192;DHT22;11261;52.456;10.850;2023-05-28T02:37:26;9.90;99.90
22192;DHT22;11261;52.456;10.850;2023-05-28T02:39:55;9.90;99.90
22192;DHT22;11261;52.456;10.850;2023-05-28T02:42:23;9.90;99.90
22192;DHT22;11261;52.456;10.850;2023-05-28T02:44:51;9.90;99.90
22192;DHT22;11261;52.456;10.850;2023-05-28T02:47:19;9.80;99.90
22192;DHT22;11261;52.456;10.850;2023-05-28T02:49:47;9.80;99.90
22192;DHT22;11261;52.456;10.850;2023-05-28T02:52:18;9.80;99.90
22192;DHT22;11261;52.456;10.850;2023-05-28T02:54:47;9.80;99.90
22192;DHT22;11261;52.456;10.850;2023-05-28T02:57:15;9.80;99.90
22192;DHT22;11261;52.456;10.850;2023-05-28T02:59:44;9.80;99.90
22192;DHT22;11261;52.456;10.850;2023-05-28T03:02:13;9.80;99.90
22192;DHT22;11261;52.456;10.850;2023-05-28T03:04:41;9.70;99.90
22192;DHT22;11261;52.456;10.850;2023-05-28T03:07:09;9.70;99.90
22192;DHT22;11261;52.456;10.850;2023-05-28T03:09:39;9.80;99.90
22192;DHT22;11261;52.456;10.850;2023-05-28T03:12:08;9.70;99.90
22192;DHT22;11261;52.456;10.850;2023-05-28T03:14:36;9.70;99.90
22192;DHT22;11261;52.456;10.850;2023-05-28T03:17:04;9.70;99.90
22192;DHT22;11261;52.456;10.850;2023-05-28T03:19:33;9.60;99.90
22192;DHT22;11261;52.456;10.850;2023-05-28T03:22:03;9.60;99.90
22192;DHT22;11261;52.456;10.850;2023-05-28T03:24:32;9.60;99.90
22192;DHT22;11261;52.456;10.850;2023-05-28T03:27:03;9.70;99.90
22192;DHT22;11261;52.456;10.850;2023-05-28T03:29:32;9.70;99.90
22192;DHT22;11261;52.456;10.850;2023-05-28T03:32:00;9.70;99.90
22192;DHT22;11261;52.456;10.850;2023-05-28T03:34:29;9.70;99.90
22192;DHT22;11261;52.456;10.850;2023-05-28T03:36:57;9.70;99.90
22192;DHT22;11261;52.456;10.850;2023-05-28T03:39:26;9.70;99.90
22192;DHT22;11261;52.456;10.850;2023-05-28T03:41:54;9.40;99.90
22192;DHT22;11261;52.456;10.850;2023-05-28T03:44:24;9.50;99.90
22192;DHT22;11261;52.456;10.850;2023-05-28T03:46:53;9.60;99.90
22192;DHT22;11261;52.456;10.850;2023-05-28T03:49:21;9.70;99.90
22192;DHT22;11261;52.456;10.850;2023-05-28T03:51:49;9.80;99.90
22192;DHT22;11261;52.456;10.850;2023-05-28T03:54:17;9.90;99.90
22192;DHT22;11261;52.456;10.850;2023-05-28T03:56:45;9.90;99.90
22192;DHT22;11261;52.456;10.850;2023-05-28T03:59:14;10.00;99.90
22192;DHT22;11261;52.456;10.850;2023-05-28T04:01:43;10.00;99.90
22192;DHT22;11261;52.456;10.850;2023-05-28T04:04:12;10.00;99.90
22192;DHT22;11261;52.456;10.850;2023-05-28T04:06:40;9.80;99.90
22192;DHT22;11261;52.456;10.850;2023-05-28T04:09:09;9.40;99.90
22192;DHT22;11261;52.456;10.850;2023-05-28T04:11:37;9.30;99.90
22192;DHT22;11261;52.456;10.850;2023-05-28T04:14:05;9.50;99.90
22192;DHT22;11261;52.456;10.850;2023-05-28T04:16:36;9.50;99.90
22192;DHT22;11261;52.456;10.850;2023-05-28T04:19:06;9.60;99.90
22192;DHT22;11261;52.456;10.850;2023-05-28T04:21:34;9.70;99.90
22192;DHT22;11261;52.456;10.850;2023-05-28T04:24:04;9.80;99.90
22192;DHT22;11261;52.456;10.850;2023-05-28T04:26:32;10.00;99.90
22192;DHT22;11261;52.456;10.850;2023-05-28T04:29:01;10.00;99.90
22192;DHT22;11261;52.456;10.850;2023-05-28T04:31:29;10.00;99.90
22192;DHT22;11261;52.456;10.850;2023-05-28T04:33:58;10.10;99.90
22192;DHT22;11261;52.456;10.850;2023-05-28T04:36:28;10.10;99.90
22192;DHT22;11261;52.456;10.850;2023-05-28T04:39:00;10.00;99.90
22192;DHT22;11261;52.456;10.850;2023-05-28T04:41:31;10.10;99.90
22192;DHT22;11261;52.456;10.850;2023-05-28T04:43:59;10.20;99.90
22192;DHT22;11261;52.456;10.850;2023-05-28T04:46:29;10.40;99.90
22192;DHT22;11261;52.456;10.850;2023-05-28T04:48:57;10.60;99.90
22192;DHT22;11261;52.456;10.850;2023-05-28T04:51:25;10.60;99.90
22192;DHT22;11261;52.456;10.850;2023-05-28T04:53:55;10.90;99.90
22192;DHT22;11261;52.456;10.850;2023-05-28T04:56:23;11.10;99.90
22192;DHT22;11261;52.456;10.850;2023-05-28T04:58:51;11.70;99.90
22192;DHT22;11261;52.456;10.850;2023-05-28T05:01:20;12.30;99.90
22192;DHT22;11261;52.456;10.850;2023-05-28T05:03:49;12.50;99.90
22192;DHT22;11261;52.456;10.850;2023-05-28T05:06:17;12.90;99.90
22192;DHT22;11261;52.456;10.850;2023-05-28T05:08:47;13.60;99.90
22192;DHT22;11261;52.456;10.850;2023-05-28T05:11:17;13.90;99.90
22192;DHT22;11261;52.456;10.850;2023-05-28T05:13:45;13.70;99.90
22192;DHT22;11261;52.456;10.850;2023-05-28T05:16:13;13.80;99.90
22192;DHT22;11261;52.456;10.850;2023-05-28T05:18:42;14.40;99.90
22192;DHT22;11261;52.456;10.850;2023-05-28T05:21:11;14.50;99.90
22192;DHT22;11261;52.456;10.850;2023-05-28T05:23:40;14.80;99.90
22192;DHT22;11261;52.456;10.850;2023-05-28T05:26:08;14.60;99.90
22192;DHT22;11261;52.456;10.850;2023-05-28T05:28:40;14.70;99.90
22192;DHT22;11261;52.456;10.850;2023-05-28T05:31:09;15.60;99.90
22192;DHT22;11261;52.456;10.850;2023-05-28T05:33:39;16.10;99.90
22192;DHT22;11261;52.456;10.850;2023-05-28T05:36:09;15.80;99.90
22192;DHT22;11261;52.456;10.850;2023-05-28T05:38:37;15.60;99.90
22192;DHT22;11261;52.456;10.850;2023-05-28T05:41:06;14.60;99.90
22192;DHT22;11261;52.456;10.850;2023-05-28T05:43:34;14.40;99.90
22192;DHT22;11261;52.456;10.850;2023-05-28T05:46:04;14.90;99.90
22192;DHT22;11261;52.456;10.850;2023-05-28T05:48:33;14.60;99.90
22192;DHT22;11261;52.456;10.850;2023-05-28T05:51:01;15.70;99.90
22192;DHT22;11261;52.456;10.850;2023-05-28T05:53:30;16.50;99.90
22192;DHT22;11261;52.456;10.850;2023-05-28T05:55:58;17.20;99.90
22192;DHT22;11261;52.456;10.850;2023-05-28T05:58:28;16.70;99.90
22192;DHT22;11261;52.456;10.850;2023-05-28T06:00:58;16.60;99.90
22192;DHT22;11261;52.456;10.850;2023-05-28T06:03:28;17.50;99.90
22192;DHT22;11261;52.456;10.850;2023-05-28T06:05:58;18.20;99.90
22192;DHT22;11261;52.456;10.850;2023-05-28T06:08:26;18.30;99.90
22192;DHT22;11261;52.456;10.850;2023-05-28T06:10:55;18.70;99.70
22192;DHT22;11261;52.456;10.850;2023-05-28T06:13:24;18.20;98.00
22192;DHT22;11261;52.456;10.850;2023-05-28T06:15:53;17.70;98.80
22192;DHT22;11261;52.456;10.850;2023-05-28T06:18:22;18.00;99.90
22192;DHT22;11261;52.456;10.850;2023-05-28T06:20:53;18.50;99.80
22192;DHT22;11261;52.456;10.850;2023-05-28T06:23:21;18.50;98.70
22192;DHT22;11261;52.456;10.850;2023-05-28T06:25:49;19.10;97.80
22192;DHT22;11261;52.456;10.850;2023-05-28T06:28:18;18.70;97.70
22192;DHT22;11261;52.456;10.850;2023-05-28T06:30:47;18.10;99.30
22192;DHT22;11261;52.456;10.850;2023-05-28T06:33:16;19.10;97.70
22192;DHT22;11261;52.456;10.850;2023-05-28T06:35:44;19.50;97.10
22192;DHT22;11261;52.456;10.850;2023-05-28T06:38:14;19.20;97.10
22192;DHT22;11261;52.456;10.850;2023-05-28T06:40:43;19.30;96.90
22192;DHT22;11261;52.456;10.850;2023-05-28T06:43:12;19.10;97.10
22192;DHT22;11261;52.456;10.850;2023-05-28T06:45:40;20.10;96.20
22192;DHT22;11261;52.456;10.850;2023-05-28T06:48:08;19.90;96.30
22192;DHT22;11261;52.456;10.850;2023-05-28T06:50:37;19.70;95.00
22192;DHT22;11261;52.456;10.850;2023-05-28T06:53:05;20.00;95.30
22192;DHT22;11261;52.456;10.850;2023-05-28T06:55:36;20.90;94.10
22192;DHT22;11261;52.456;10.850;2023-05-28T06:58:04;21.80;93.40
22192;DHT22;11261;52.456;10.850;2023-05-28T07:00:32;21.60;92.20
22192;DHT22;11261;52.456;10.850;2023-05-28T07:03:01;21.90;91.50
22192;DHT22;11261;52.456;10.850;2023-05-28T07:05:29;21.20;91.60
22192;DHT22;11261;52.456;10.850;2023-05-28T07:07:57;21.50;92.00
22192;DHT22;11261;52.456;10.850;2023-05-28T07:10:26;21.80;90.50
22192;DHT22;11261;52.456;10.850;2023-05-28T07:12:56;22.40;88.30
22192;DHT22;11261;52.456;10.850;2023-05-28T07:15:24;21.50;88.90
22192;DHT22;11261;52.456;10.850;2023-05-28T07:17:52;21.70;89.40
22192;DHT22;11261;52.456;10.850;2023-05-28T07:20:21;20.80;91.20
22192;DHT22;11261;52.456;10.850;2023-05-28T07:22:49;20.10;93.90
22192;DHT22;11261;52.456;10.850;2023-05-28T07:25:18;21.00;89.80
22192;DHT22;11261;52.456;10.850;2023-05-28T07:27:46;21.50;89.30
22192;DHT22;11261;52.456;10.850;2023-05-28T07:30:17;21.60;86.90
22192;DHT22;11261;52.456;10.850;2023-05-28T07:32:45;20.90;91.20
22192;DHT22;11261;52.456;10.850;2023-05-28T07:35:13;22.10;87.50
22192;DHT22;11261;52.456;10.850;2023-05-28T07:37:43;21.50;88.00
22192;DHT22;11261;52.456;10.850;2023-05-28T07:40:11;22.30;86.60
22192;DHT22;11261;52.456;10.850;2023-05-28T07:42:41;22.40;85.70
22192;DHT22;11261;52.456;10.850;2023-05-28T07:45:09;20.80;89.90
22192;DHT22;11261;52.456;10.850;2023-05-28T07:47:39;22.20;91.00
22192;DHT22;11261;52.456;10.850;2023-05-28T07:50:08;23.10;85.30
22192;DHT22;11261;52.456;10.850;2023-05-28T07:52:37;21.80;86.30
22192;DHT22;11261;52.456;10.850;2023-05-28T07:55:08;22.90;85.70
22192;DHT22;11261;52.456;10.850;2023-05-28T07:57:36;23.40;86.80
22192;DHT22;11261;52.456;10.850;2023-05-28T08:00:06;22.50;86.40
22192;DHT22;11261;52.456;10.850;2023-05-28T08:02:44;22.40;87.90
22192;DHT22;11261;52.456;10.850;2023-05-28T08:05:16;23.50;83.60
22192;DHT22;11261;52.456;10.850;2023-05-28T08:07:45;23.50;89.60
22192;DHT22;11261;52.456;10.850;2023-05-28T08:10:14;24.20;83.80
22192;DHT22;11261;52.456;10.850;2023-05-28T08:12:42;25.30;82.10
22192;DHT22;11261;52.456;10.850;2023-05-28T08:15:10;23.40;82.70
22192;DHT22;11261;52.456;10.850;2023-05-28T08:17:39;23.00;84.80
22192;DHT22;11261;52.456;10.850;2023-05-28T08:20:10;23.20;85.40
22192;DHT22;11261;52.456;10.850;2023-05-28T08:22:38;23.10;90.40
22192;DHT22;11261;52.456;10.850;2023-05-28T08:25:07;24.70;78.10
22192;DHT22;11261;52.456;10.850;2023-05-28T08:27:36;25.20;77.40
22192;DHT22;11261;52.456;10.850;2023-05-28T08:30:05;25.90;84.30
22192;DHT22;11261;52.456;10.850;2023-05-28T08:32:35;24.80;78.70
22192;DHT22;11261;52.456;10.850;2023-05-28T08:35:04;25.10;72.70
22192;DHT22;11261;52.456;10.850;2023-05-28T08:37:34;24.40;73.20
22192;DHT22;11261;52.456;10.850;2023-05-28T08:40:04;23.50;84.80
22192;DHT22;11261;52.456;10.850;2023-05-28T08:42:35;23.80;75.40
22192;DHT22;11261;52.456;10.850;2023-05-28T08:45:05;25.30;70.00
22192;DHT22;11261;52.456;10.850;2023-05-28T08:47:34;26.50;65.60
22192;DHT22;11261;52.456;10.850;2023-05-28T08:50:06;24.80;72.50
22192;DHT22;11261;52.456;10.850;2023-05-28T08:52:36;24.70;70.00
22192;DHT22;11261;52.456;10.850;2023-05-28T08:55:05;26.20;69.30
22192;DHT22;11261;52.456;10.850;2023-05-28T08:57:33;24.70;65.40
22192;DHT22;11261;52.456;10.850;2023-05-28T09:00:03;24.70;72.00
22192;DHT22;11261;52.456;10.850;2023-05-28T09:02:34;25.30;62.40
22192;DHT22;11261;52.456;10.850;2023-05-28T09:05:03;26.30;76.80
22192;DHT22;11261;52.456;10.850;2023-05-28T09:07:32;26.60;58.70
22192;DHT22;11261;52.456;10.850;2023-05-28T09:10:02;25.90;59.10
22192;DHT22;11261;52.456;10.850;2023-05-28T09:12:30;26.90;69.30
22192;DHT22;11261;52.456;10.850;2023-05-28T09:14:58;26.50;59.70
22192;DHT22;11261;52.456;10.850;2023-05-28T09:17:34;25.10;64.50
22192;DHT22;11261;52.456;10.850;2023-05-28T09:20:09;27.20;74.00
22192;DHT22;11261;52.456;10.850;2023-05-28T09:22:39;25.90;62.60
22192;DHT22;11261;52.456;10.850;2023-05-28T09:25:10;26.00;62.00
22192;DHT22;11261;52.456;10.850;2023-05-28T09:27:39;25.80;60.70
22192;DHT22;11261;52.456;10.850;2023-05-28T09:30:09;26.20;62.40
22192;DHT22;11261;52.456;10.850;2023-05-28T09:32:38;25.30;66.30
22192;DHT22;11261;52.456;10.850;2023-05-28T09:35:08;27.30;70.80
22192;DHT22;11261;52.456;10.850;2023-05-28T09:37:37;27.40;59.00
22192;DHT22;11261;52.456;10.850;2023-05-28T09:40:09;27.20;59.70
22192;DHT22;11261;52.456;10.850;2023-05-28T09:42:37;27.40;61.20
22192;DHT22;11261;52.456;10.850;2023-05-28T09:45:10;25.50;64.30
22192;DHT22;11261;52.456;10.850;2023-05-28T09:47:42;24.60;63.60
22192;DHT22;11261;52.456;10.850;2023-05-28T09:50:11;25.40;63.70
22192;DHT22;11261;52.456;10.850;2023-05-28T09:52:42;24.40;63.50
22192;DHT22;11261;52.456;10.850;2023-05-28T09:55:14;25.10;68.90
22192;DHT22;11261;52.456;10.850;2023-05-28T09:57:46;26.90;62.40
22192;DHT22;11261;52.456;10.850;2023-05-28T10:00:20;27.40;60.90
22192;DHT22;11261;52.456;10.850;2023-05-28T10:02:56;25.00;63.80
22192;DHT22;11261;52.456;10.850;2023-05-28T10:05:31;25.00;65.70
22192;DHT22;11261;52.456;10.850;2023-05-28T10:08:00;24.10;65.40
22192;DHT22;11261;52.456;10.850;2023-05-28T10:10:32;23.80;65.90
22192;DHT22;11261;52.456;10.850;2023-05-28T10:13:01;25.30;66.40
22192;DHT22;11261;52.456;10.850;2023-05-28T10:15:30;24.10;64.80
22192;DHT22;11261;52.456;10.850;2023-05-28T10:17:59;24.90;63.10
22192;DHT22;11261;52.456;10.850;2023-05-28T10:20:29;26.50;71.50
22192;DHT22;11261;52.456;10.850;2023-05-28T10:22:58;26.30;61.30
22192;DHT22;11261;52.456;10.850;2023-05-28T10:25:26;23.60;66.40
22192;DHT22;11261;52.456;10.850;2023-05-28T10:27:59;24.00;72.00
22192;DHT22;11261;52.456;10.850;2023-05-28T10:30:33;26.60;66.00
22192;DHT22;11261;52.456;10.850;2023-05-28T10:33:05;25.10;63.90
22192;DHT22;11261;52.456;10.850;2023-05-28T10:35:34;24.40;65.50
22192;DHT22;11261;52.456;10.850;2023-05-28T10:38:04;23.20;66.40
22192;DHT22;11261;52.456;10.850;2023-05-28T10:40:34;24.50;67.80
22192;DHT22;11261;52.456;10.850;2023-05-28T10:43:04;24.90;64.40
22192;DHT22;11261;52.456;10.850;2023-05-28T10:45:36;25.40;61.70
22192;DHT22;11261;52.456;10.850;2023-05-28T10:48:05;25.90;67.20
22192;DHT22;11261;52.456;10.850;2023-05-28T10:51:00;24.80;63.40
22192;DHT22;11261;52.456;10.850;2023-05-28T10:53:33;26.20;61.20
22192;DHT22;11261;52.456;10.850;2023-05-28T10:56:02;25.40;64.00
22192;DHT22;11261;52.456;10.850;2023-05-28T10:58:35;23.90;66.00
22192;DHT22;11261;52.456;10.850;2023-05-28T11:01:05;23.80;66.40
22192;DHT22;11261;52.456;10.850;2023-05-28T11:03:38;24.00;66.00
22192;DHT22;11261;52.456;10.850;2023-05-28T11:06:08;23.80;65.30
22192;DHT22;11261;52.456;10.850;2023-05-28T11:08:41;23.80;70.30
22192;DHT22;11261;52.456;10.850;2023-05-28T11:11:11;23.90;64.80
22192;DHT22;11261;52.456;10.850;2023-05-28T11:13:46;24.60;70.10
22192;DHT22;11261;52.456;10.850;2023-05-28T11:16:16;26.40;63.80
22192;DHT22;11261;52.456;10.850;2023-05-28T11:19:01;26.30;60.90
22192;DHT22;11261;52.456;10.850;2023-05-28T11:21:29;25.50;62.70
22192;DHT22;11261;52.456;10.850;2023-05-28T11:24:03;24.60;66.70
22192;DHT22;11261;52.456;10.850;2023-05-28T11:26:32;27.80;60.60
22192;DHT22;11261;52.456;10.850;2023-05-28T11:29:03;27.90;60.00
22192;DHT22;11261;52.456;10.850;2023-05-28T11:31:38;26.90;62.00
22192;DHT22;11261;52.456;10.850;2023-05-28T11:34:08;25.90;59.70
22192;DHT22;11261;52.456;10.850;2023-05-28T11:36:40;25.00;63.00
22192;DHT22;11261;52.456;10.850;2023-05-28T11:39:09;26.50;66.40
22192;DHT22;11261;52.456;10.850;2023-05-28T11:41:37;25.30;64.60
22192;DHT22;11261;52.456;10.850;2023-05-28T11:44:19;25.00;61.00
22192;DHT22;11261;52.456;10.850;2023-05-28T11:46:54;23.80;62.40
22192;DHT22;11261;52.456;10.850;2023-05-28T11:49:23;26.20;59.80
22192;DHT22;11261;52.456;10.850;2023-05-28T11:51:51;28.10;60.50
22192;DHT22;11261;52.456;10.850;2023-05-28T11:54:21;28.40;58.20
22192;DHT22;11261;52.456;10.850;2023-05-28T11:56:50;27.90;57.80
22192;DHT22;11261;52.456;10.850;2023-05-28T11:59:21;26.50;60.90
22192;DHT22;11261;52.456;10.850;2023-05-28T12:01:53;26.20;57.00
22192;DHT22;11261;52.456;10.850;2023-05-28T12:04:22;26.80;62.40
22192;DHT22;11261;52.456;10.850;2023-05-28T12:06:52;27.50;57.40
22192;DHT22;11261;52.456;10.850;2023-05-28T12:09:20;24.40;60.50
22192;DHT22;11261;52.456;10.850;2023-05-28T12:12:02;26.30;60.60
22192;DHT22;11261;52.456;10.850;2023-05-28T12:14:32;26.20;59.10
22192;DHT22;11261;52.456;10.850;2023-05-28T12:17:08;25.60;59.20
22192;DHT22;11261;52.456;10.850;2023-05-28T12:19:37;25.30;61.50
22192;DHT22;11261;52.456;10.850;2023-05-28T12:22:15;26.50;61.10
22192;DHT22;11261;52.456;10.850;2023-05-28T12:24:50;27.20;61.40
22192;DHT22;11261;52.456;10.850;2023-05-28T12:27:20;26.40;57.00
22192;DHT22;11261;52.456;10.850;2023-05-28T12:29:50;26.10;62.20
22192;DHT22;11261;52.456;10.850;2023-05-28T12:32:18;26.80;59.70
22192;DHT22;11261;52.456;10.850;2023-05-28T12:34:47;27.60;55.70
22192;DHT22;11261;52.456;10.850;2023-05-28T12:37:16;25.10;58.50
22192;DHT22;11261;52.456;10.850;2023-05-28T12:39:45;25.00;59.30
22192;DHT22;11261;52.456;10.850;2023-05-28T12:42:13;24.20;61.30
22192;DHT22;11261;52.456;10.850;2023-05-28T12:44:41;26.60;57.60
22192;DHT22;11261;52.456;10.850;2023-05-28T12:47:11;25.50;58.90
22192;DHT22;11261;52.456;10.850;2023-05-28T12:49:40;25.00;62.10
22192;DHT22;11261;52.456;10.850;2023-05-28T12:52:08;24.60;61.70
22192;DHT22;11261;52.456;10.850;2023-05-28T12:54:37;25.10;63.80
22192;DHT22;11261;52.456;10.850;2023-05-28T12:57:05;27.50;61.40
22192;DHT22;11261;52.456;10.850;2023-05-28T12:59:33;27.70;58.60
22192;DHT22;11261;52.456;10.850;2023-05-28T13:02:02;27.10;57.20
22192;DHT22;11261;52.456;10.850;2023-05-28T13:04:32;27.10;58.00
22192;DHT22;11261;52.456;10.850;2023-05-28T13:07:00;26.60;57.90
22192;DHT22;11261;52.456;10.850;2023-05-28T13:09:28;25.10;59.90
22192;DHT22;11261;52.456;10.850;2023-05-28T13:11:57;27.10;57.80
22192;DHT22;11261;52.456;10.850;2023-05-28T13:14:25;28.50;53.20
22192;DHT22;11261;52.456;10.850;2023-05-28T13:16:54;26.30;53.30
22192;DHT22;11261;52.456;10.850;2023-05-28T13:19:22;24.40;56.50
22192;DHT22;11261;52.456;10.850;2023-05-28T13:21:52;24.20;56.80
22192;DHT22;11261;52.456;10.850;2023-05-28T13:24:20;26.40;58.60
22192;DHT22;11261;52.456;10.850;2023-05-28T13:26:52;27.90;55.00
22192;DHT22;11261;52.456;10.850;2023-05-28T13:29:21;27.30;56.50
22192;DHT22;11261;52.456;10.850;2023-05-28T13:31:49;25.70;60.30
22192;DHT22;11261;52.456;10.850;2023-05-28T13:34:17;24.80;57.40
22192;DHT22;11261;52.456;10.850;2023-05-28T13:36:46;25.40;57.20
22192;DHT22;11261;52.456;10.850;2023-05-28T13:39:16;24.60;59.60
22192;DHT22;11261;52.456;10.850;2023-05-28T13:41:47;24.20;59.00
22192;DHT22;11261;52.456;10.850;2023-05-28T13:44:16;24.40;58.20
22192;DHT22;11261;52.456;10.850;2023-05-28T13:46:44;26.70;58.90
22192;DHT22;11261;52.456;10.850;2023-05-28T13:49:13;27.90;58.80
22192;DHT22;11261;52.456;10.850;2023-05-28T13:51:41;25.40;55.60
22192;DHT22;11261;52.456;10.850;2023-05-28T13:54:10;26.80;57.50
22192;DHT22;11261;52.456;10.850;2023-05-28T13:56:43;26.90;56.40
22192;DHT22;11261;52.456;10.850;2023-05-28T13:59:12;25.90;57.40
22192;DHT22;11261;52.456;10.850;2023-05-28T14:01:40;27.20;59.00
22192;DHT22;11261;52.456;10.850;2023-05-28T14:04:08;27.30;55.40
22192;DHT22;11261;52.456;10.850;2023-05-28T14:06:37;26.50;55.00
22192;DHT22;11261;52.456;10.850;2023-05-28T14:09:05;24.70;56.40
22192;DHT22;11261;52.456;10.850;2023-05-28T14:11:33;24.40;57.00
22192;DHT22;11261;52.456;10.850;2023-05-28T14:14:23;26.20;56.80
22192;DHT22;11261;52.456;10.850;2023-05-28T14:16:51;27.50;56.00
22192;DHT22;11261;52.456;10.850;2023-05-28T14:19:19;25.60;56.40
22192;DHT22;11261;52.456;10.850;2023-05-28T14:21:48;25.90;56.50
22192;DHT22;11261;52.456;10.850;2023-05-28T14:24:16;26.40;54.60
22192;DHT22;11261;52.456;10.850;2023-05-28T14:26:44;26.70;56.60
22192;DHT22;11261;52.456;10.850;2023-05-28T14:29:13;27.20;54.30
22192;DHT22;11261;52.456;10.850;2023-05-28T14:31:42;25.90;55.40
22192;DHT22;11261;52.456;10.850;2023-05-28T14:34:11;25.70;57.00
22192;DHT22;11261;52.456;10.850;2023-05-28T14:36:40;26.30;57.00
22192;DHT22;11261;52.456;10.850;2023-05-28T14:39:08;27.60;55.40
22192;DHT22;11261;52.456;10.850;2023-05-28T14:41:36;27.80;55.10
22192;DHT22;11261;52.456;10.850;2023-05-28T14:44:04;27.20;54.80
22192;DHT22;11261;52.456;10.850;2023-05-28T14:46:33;24.90;58.80
22192;DHT22;11261;52.456;10.850;2023-05-28T14:49:03;25.80;60.40
22192;DHT22;11261;52.456;10.850;2023-05-28T14:51:31;26.90;57.70
22192;DHT22;11261;52.456;10.850;2023-05-28T14:54:00;27.30;56.40
22192;DHT22;11261;52.456;10.850;2023-05-28T14:56:29;26.80;56.40
22192;DHT22;11261;52.456;10.850;2023-05-28T14:58:57;25.90;57.40
22192;DHT22;11261;52.456;10.850;2023-05-28T15:01:26;26.00;57.50
22192;DHT22;11261;52.456;10.850;2023-05-28T15:03:54;25.40;58.70
22192;DHT22;11261;52.456;10.850;2023-05-28T15:06:24;25.60;57.50
22192;DHT22;11261;52.456;10.850;2023-05-28T15:08:52;26.30;58.00
22192;DHT22;11261;52.456;10.850;2023-05-28T15:11:21;26.40;56.80
22192;DHT22;11261;52.456;10.850;2023-05-28T15:13:49;25.90;58.00
22192;DHT22;11261;52.456;10.850;2023-05-28T15:16:21;26.40;57.30
22192;DHT22;11261;52.456;10.850;2023-05-28T15:18:50;26.30;58.30
22192;DHT22;11261;52.456;10.850;2023-05-28T15:21:18;26.10;57.80
22192;DHT22;11261;52.456;10.850;2023-05-28T15:23:48;26.50;57.00
22192;DHT22;11261;52.456;10.850;2023-05-28T15:26:17;26.00;56.40
22192;DHT22;11261;52.456;10.850;2023-05-28T15:28:46;24.80;58.80
22192;DHT22;11261;52.456;10.850;2023-05-28T15:31:15;25.20;59.70